sensor_id;sensor_type;location;lat;lon;timestamp;P1;durP1;ratioP1;P2;durP2;ratioP2
14584;SDS011;7379;51.506;11.876;2023-06-22T00:00:39;7.47;;;6.88;;
14584;SDS011;7379;51.506;11.876;2023-06-22T00:03:07;7.82;;;7.15;;
14584;SDS011;7379;51.506;11.876;2023-06-22T00:05:34;8.20;;;7.50;;
14584;SDS011;7379;51.506;11.876;2023-06-22T00:08:02;7.97;;;7.13;;
14584;SDS011;7379;51.506;11.876;2023-06-22T00:10:29;7.97;;;7.18;;
14584;SDS011;7379;51.506;11.876;2023-06-22T00:12:57;7.93;;;7.22;;
14584;SDS011;7379;51.506;11.876;2023-06-22T00:15:24;7.85;;;7.25;;
14584;SDS011;7379;51.506;11.876;2023-06-22T00:17:50;8.40;;;7.63;;
14584;SDS011;7379;51.506;11.876;2023-06-22T00:20:17;8.63;;;7.82;;
14584;SDS011;7379;51.506;11.876;2023-06-22T00:22:44;8.40;;;7.63;;
14584;SDS011;7379;51.506;11.876;2023-06-22T00:25:11;8.10;;;7.40;;
14584;SDS011;7379;51.506;11.876;2023-06-22T00:27:38;8.13;;;7.43;;
14584;SDS011;7379;51.506;11.876;2023-06-22T00:30:06;8.10;;;7.40;;
14584;SDS011;7379;51.506;11.876;2023-06-22T00:32:34;8.27;;;7.57;;
14584;SDS011;7379;51.506;11.876;2023-06-22T00:35:01;8.15;;;7.45;;
14584;SDS011;7379;51.506;11.876;2023-06-22T00:37:27;8.50;;;7.80;;
14584;SDS011;7379;51.506;11.876;2023-06-22T00:39:54;8.40;;;7.60;;
14584;SDS011;7379;51.506;11.876;2023-06-22T00:42:21;8.07;;;7.38;;
14584;SDS011;7379;51.506;11.876;2023-06-22T00:44:48;8.68;;;7.88;;
14584;SDS011;7379;51.506;11.876;2023-06-22T00:47:17;9.40;;;7.80;;
14584;SDS011;7379;51.506;11.876;2023-06-22T00:49:44;8.20;;;7.50;;
14584;SDS011;7379;51.506;11.876;2023-06-22T00:52:13;8.77;;;7.97;;
14584;SDS011;7379;51.506;11.876;2023-06-22T00:54:45;8.75;;;7.95;;
14584;SDS011;7379;51.506;11.876;2023-06-22T00:57:14;8.25;;;7.55;;
14584;SDS011;7379;51.506;11.876;2023-06-22T00:59:41;8.43;;;7.68;;
14584;SDS011;7379;51.506;11.876;2023-06-22T01:02:09;8.50;;;7.80;;
14584;SDS011;7379;51.506;11.876;2023-06-22T01:04:37;8.70;;;8.00;;
14584;SDS011;7379;51.506;11.876;2023-06-22T01:07:06;8.95;;;8.15;;
14584;SDS011;7379;51.506;11.876;2023-06-22T01:09:40;8.43;;;7.65;;
14584;SDS011;7379;51.506;11.876;2023-06-22T01:12:12;8.55;;;7.85;;
14584;SDS011;7379;51.506;11.876;2023-06-22T01:14:42;8.70;;;7.90;;
14584;SDS011;7379;51.506;11.876;2023-06-22T01:17:17;8.30;;;7.60;;
14584;SDS011;7379;51.506;11.876;2023-06-22T01:19:47;8.07;;;7.38;;
14584;SDS011;7379;51.506;11.876;2023-06-22T01:22:21;8.13;;;7.43;;
14584;SDS011;7379;51.506;11.876;2023-06-22T01:24:51;8.13;;;7.50;;
14584;SDS011;7379;51.506;11.876;2023-06-22T01:27:28;8.43;;;7.72;;
14584;SDS011;7379;51.506;11.876;2023-06-22T01:30:03;8.75;;;7.93;;
14584;SDS011;7379;51.506;11.876;2023-06-22T01:32:33;8.57;;;7.88;;
14584;SDS011;7379;51.506;11.876;2023-06-22T01:35:03;8.07;;;7.38;;
14584;SDS011;7379;51.506;11.876;2023-06-22T01:37:31;8.23;;;7.50;;
14584;SDS011;7379;51.506;11.876;2023-06-22T01:39:59;8.27;;;7.50;;
14584;SDS011;7379;51.506;11.876;2023-06-22T01:42:27;8.45;;;7.65;;
14584;SDS011;7379;51.506;11.876;2023-06-22T01:44:55;8.55;;;7.85;;
14584;SDS011;7379;51.506;11.876;2023-06-22T01:47:24;9.10;;;8.30;;
14584;SDS011;7379;51.506;11.876;2023-06-22T01:49:52;8.55;;;7.85;;
14584;SDS011;7379;51.506;11.876;2023-06-22T01:52:20;8.75;;;8.02;;
14584;SDS011;7379;51.506;11.876;2023-06-22T01:54:47;8.20;;;7.43;;
14584;SDS011;7379;51.506;11.876;2023-06-22T01:57:14;8.52;;;7.82;;
14584;SDS011;7379;51.506;11.876;2023-06-22T01:59:43;8.15;;;7.45;;
14584;SDS011;7379;51.506;11.876;2023-06-22T02:02:15;8.73;;;7.97;;
14584;SDS011;7379;51.506;11.876;2023-06-22T02:04:48;8.50;;;7.70;;
14584;SDS011;7379;51.506;11.876;2023-06-22T02:07:18;8.77;;;7.88;;
14584;SDS011;7379;51.506;11.876;2023-06-22T02:09:47;8.05;;;7.35;;
14584;SDS011;7379;51.506;11.876;2023-06-22T02:12:18;8.70;;;7.90;;
14584;SDS011;7379;51.506;11.876;2023-06-22T02:14:49;8.70;;;7.90;;
14584;SDS011;7379;51.506;11.876;2023-06-22T02:17:17;8.70;;;7.97;;
14584;SDS011;7379;51.506;11.876;2023-06-22T02:19:44;8.90;;;8.10;;
14584;SDS011;7379;51.506;11.876;2023-06-22T02:22:13;8.38;;;7.60;;
14584;SDS011;7379;51.506;11.876;2023-06-22T02:24:39;8.60;;;7.80;;
14584;SDS011;7379;51.506;11.876;2023-06-22T02:27:06;8.25;;;7.55;;
14584;SDS011;7379;51.506;11.876;2023-06-22T02:29:33;8.82;;;8.05;;
14584;SDS011;7379;51.506;11.876;2023-06-22T02:32:00;8.80;;;8.00;;
14584;SDS011;7379;51.506;11.876;2023-06-22T02:34:26;8.48;;;7.78;;
14584;SDS011;7379;51.506;11.876;2023-06-22T02:36:53;8.05;;;7.35;;
14584;SDS011;7379;51.506;11.876;2023-06-22T02:39:22;8.23;;;7.55;;
14584;SDS011;7379;51.506;11.876;2023-06-22T02:41:49;8.82;;;8.02;;
14584;SDS011;7379;51.506;11.876;2023-06-22T02:44:16;8.93;;;8.13;;
14584;SDS011;7379;51.506;11.876;2023-06-22T02:46:44;9.20;;;8.40;;
14584;SDS011;7379;51.506;11.876;2023-06-22T02:49:11;8.70;;;7.97;;
14584;SDS011;7379;51.506;11.876;2023-06-22T02:51:39;8.88;;;8.07;;
14584;SDS011;7379;51.506;11.876;2023-06-22T02:54:08;8.60;;;7.80;;
14584;SDS011;7379;51.506;11.876;2023-06-22T02:56:36;9.07;;;8.27;;
14584;SDS011;7379;51.506;11.876;2023-06-22T02:59:03;8.60;;;7.90;;
14584;SDS011;7379;51.506;11.876;2023-06-22T03:01:30;8.43;;;7.72;;
14584;SDS011;7379;51.506;11.876;2023-06-22T03:04:02;8.82;;;8.02;;
14584;SDS011;7379;51.506;11.876;2023-06-22T03:06:29;9.60;;;8.77;;
14584;SDS011;7379;51.506;11.876;2023-06-22T03:08:59;9.52;;;8.63;;
14584;SDS011;7379;51.506;11.876;2023-06-22T03:11:29;9.27;;;8.48;;
14584;SDS011;7379;51.506;11.876;2023-06-22T03:13:57;9.00;;;8.20;;
14584;SDS011;7379;51.506;11.876;2023-06-22T03:16:24;9.05;;;8.15;;
14584;SDS011;7379;51.506;11.876;2023-06-22T03:18:50;8.63;;;7.93;;
14584;SDS011;7379;51.506;11.876;2023-06-22T03:21:18;8.65;;;7.95;;
14584;SDS011;7379;51.506;11.876;2023-06-22T03:23:45;8.77;;;8.07;;
14584;SDS011;7379;51.506;11.876;2023-06-22T03:26:12;9.40;;;8.60;;
14584;SDS011;7379;51.506;11.876;2023-06-22T03:28:39;9.45;;;8.65;;
14584;SDS011;7379;51.506;11.876;2023-06-22T03:31:07;9.48;;;8.60;;
14584;SDS011;7379;51.506;11.876;2023-06-22T03:33:34;8.70;;;7.85;;
14584;SDS011;7379;51.506;11.876;2023-06-22T03:36:01;9.45;;;8.55;;
14584;SDS011;7379;51.506;11.876;2023-06-22T03:38:27;9.10;;;8.30;;
14584;SDS011;7379;51.506;11.876;2023-06-22T03:40:54;9.02;;;8.23;;
14584;SDS011;7379;51.506;11.876;2023-06-22T03:43:21;9.30;;;8.40;;
14584;SDS011;7379;51.506;11.876;2023-06-22T03:45:48;9.43;;;8.55;;
14584;SDS011;7379;51.506;11.876;2023-06-22T03:48:16;8.75;;;8.05;;
14584;SDS011;7379;51.506;11.876;2023-06-22T03:50:43;8.95;;;8.05;;
14584;SDS011;7379;51.506;11.876;2023-06-22T03:53:10;9.23;;;8.43;;
14584;SDS011;7379;51.506;11.876;2023-06-22T03:55:40;9.23;;;8.43;;
14584;SDS011;7379;51.506;11.876;2023-06-22T03:58:13;8.73;;;7.93;;
14584;SDS011;7379;51.506;11.876;2023-06-22T04:00:40;9.02;;;8.23;;
14584;SDS011;7379;51.506;11.876;2023-06-22T04:03:07;9.13;;;8.32;;
14584;SDS011;7379;51.506;11.876;2023-06-22T04:05:35;8.98;;;8.25;;
14584;SDS011;7379;51.506;11.876;2023-06-22T04:08:01;9.98;;;8.98;;
14584;SDS011;7379;51.506;11.876;2023-06-22T04:10:28;9.30;;;8.40;;
14584;SDS011;7379;51.506;11.876;2023-06-22T04:12:55;9.18;;;8.25;;
14584;SDS011;7379;51.506;11.876;2023-06-22T04:15:22;9.32;;;8.43;;
14584;SDS011;7379;51.506;11.876;2023-06-22T04:17:48;9.90;;;9.00;;
14584;SDS011;7379;51.506;11.876;2023-06-22T04:20:15;9.20;;;8.30;;
14584;SDS011;7379;51.506;11.876;2023-06-22T04:22:43;8.63;;;7.93;;
14584;SDS011;7379;51.506;11.876;2023-06-22T04:25:10;9.32;;;8.50;;
14584;SDS011;7379;51.506;11.876;2023-06-22T04:27:37;9.13;;;8.32;;
14584;SDS011;7379;51.506;11.876;2023-06-22T04:30:06;9.02;;;8.32;;
14584;SDS011;7379;51.506;11.876;2023-06-22T04:32:33;9.43;;;8.52;;
14584;SDS011;7379;51.506;11.876;2023-06-22T04:35:01;8.82;;;8.13;;
14584;SDS011;7379;51.506;11.876;2023-06-22T04:37:29;9.38;;;8.57;;
14584;SDS011;7379;51.506;11.876;2023-06-22T04:39:57;9.23;;;8.43;;
14584;SDS011;7379;51.506;11.876;2023-06-22T04:42:25;8.98;;;8.18;;
14584;SDS011;7379;51.506;11.876;2023-06-22T04:44:52;9.05;;;8.18;;
14584;SDS011;7379;51.506;11.876;2023-06-22T04:47:19;9.70;;;8.80;;
14584;SDS011;7379;51.506;11.876;2023-06-22T04:49:46;9.27;;;8.38;;
14584;SDS011;7379;51.506;11.876;2023-06-22T04:52:13;9.18;;;8.27;;
14584;SDS011;7379;51.506;11.876;2023-06-22T04:54:42;9.00;;;8.20;;
14584;SDS011;7379;51.506;11.876;2023-06-22T04:57:13;9.27;;;8.50;;
14584;SDS011;7379;51.506;11.876;2023-06-22T04:59:40;9.98;;;9.07;;
14584;SDS011;7379;51.506;11.876;2023-06-22T05:02:07;9.80;;;9.00;;
14584;SDS011;7379;51.506;11.876;2023-06-22T05:04:35;8.93;;;8.15;;
14584;SDS011;7379;51.506;11.876;2023-06-22T05:07:03;8.80;;;8.00;;
14584;SDS011;7379;51.506;11.876;2023-06-22T05:09:31;9.63;;;8.75;;
14584;SDS011;7379;51.506;11.876;2023-06-22T05:11:58;9.73;;;8.82;;
14584;SDS011;7379;51.506;11.876;2023-06-22T05:14:28;9.70;;;8.80;;
14584;SDS011;7379;51.506;11.876;2023-06-22T05:16:55;9.30;;;8.40;;
14584;SDS011;7379;51.506;11.876;2023-06-22T05:19:24;9.57;;;8.77;;
14584;SDS011;7379;51.506;11.876;2023-06-22T05:21:58;9.20;;;8.40;;
14584;SDS011;7379;51.506;11.876;2023-06-22T05:24:25;9.52;;;8.73;;
14584;SDS011;7379;51.506;11.876;2023-06-22T05:26:51;10.07;;;9.18;;
14584;SDS011;7379;51.506;11.876;2023-06-22T05:29:18;10.25;;;9.32;;
14584;SDS011;7379;51.506;11.876;2023-06-22T05:31:48;9.90;;;8.95;;
14584;SDS011;7379;51.506;11.876;2023-06-22T05:34:15;9.38;;;8.38;;
14584;SDS011;7379;51.506;11.876;2023-06-22T05:36:41;9.20;;;8.40;;
14584;SDS011;7379;51.506;11.876;2023-06-22T05:39:12;9.43;;;8.60;;
14584;SDS011;7379;51.506;11.876;2023-06-22T05:41:39;11.63;;;10.43;;
14584;SDS011;7379;51.506;11.876;2023-06-22T05:44:06;12.05;;;10.75;;
14584;SDS011;7379;51.506;11.876;2023-06-22T05:46:33;10.85;;;9.73;;
14584;SDS011;7379;51.506;11.876;2023-06-22T05:49:01;10.85;;;9.68;;
14584;SDS011;7379;51.506;11.876;2023-06-22T05:51:28;10.20;;;9.20;;
14584;SDS011;7379;51.506;11.876;2023-06-22T05:53:54;10.73;;;9.63;;
14584;SDS011;7379;51.506;11.876;2023-06-22T05:56:21;10.20;;;9.20;;
14584;SDS011;7379;51.506;11.876;2023-06-22T05:58:48;9.93;;;9.02;;
14584;SDS011;7379;51.506;11.876;2023-06-22T06:01:14;10.10;;;9.05;;
14584;SDS011;7379;51.506;11.876;2023-06-22T06:03:41;9.95;;;9.02;;
14584;SDS011;7379;51.506;11.876;2023-06-22T06:06:10;12.80;;;9.00;;
14584;SDS011;7379;51.506;11.876;2023-06-22T06:08:37;10.60;;;9.50;;
14584;SDS011;7379;51.506;11.876;2023-06-22T06:11:04;9.95;;;9.00;;
14584;SDS011;7379;51.506;11.876;2023-06-22T06:13:31;10.85;;;9.80;;
14584;SDS011;7379;51.506;11.876;2023-06-22T06:15:57;9.82;;;8.82;;
14584;SDS011;7379;51.506;11.876;2023-06-22T06:18:24;11.88;;;9.30;;
14584;SDS011;7379;51.506;11.876;2023-06-22T06:20:51;10.35;;;9.20;;
14584;SDS011;7379;51.506;11.876;2023-06-22T06:23:19;9.98;;;8.93;;
14584;SDS011;7379;51.506;11.876;2023-06-22T06:25:46;9.85;;;8.82;;
14584;SDS011;7379;51.506;11.876;2023-06-22T06:28:12;10.32;;;8.88;;
14584;SDS011;7379;51.506;11.876;2023-06-22T06:30:39;10.05;;;8.57;;
14584;SDS011;7379;51.506;11.876;2023-06-22T06:33:06;10.57;;;9.57;;
14584;SDS011;7379;51.506;11.876;2023-06-22T06:35:34;9.18;;;8.27;;
14584;SDS011;7379;51.506;11.876;2023-06-22T06:38:00;9.88;;;8.77;;
14584;SDS011;7379;51.506;11.876;2023-06-22T06:40:28;10.38;;;9.30;;
14584;SDS011;7379;51.506;11.876;2023-06-22T06:42:56;9.68;;;8.50;;
14584;SDS011;7379;51.506;11.876;2023-06-22T06:45:23;9.93;;;8.88;;
14584;SDS011;7379;51.506;11.876;2023-06-22T06:47:50;9.40;;;8.50;;
14584;SDS011;7379;51.506;11.876;2023-06-22T06:50:18;10.05;;;9.02;;
14584;SDS011;7379;51.506;11.876;2023-06-22T06:52:45;10.23;;;9.23;;
14584;SDS011;7379;51.506;11.876;2023-06-22T06:55:11;9.95;;;9.05;;
14584;SDS011;7379;51.506;11.876;2023-06-22T06:57:40;10.65;;;9.65;;
14584;SDS011;7379;51.506;11.876;2023-06-22T07:00:08;9.98;;;9.00;;
14584;SDS011;7379;51.506;11.876;2023-06-22T07:02:38;10.05;;;9.13;;
14584;SDS011;7379;51.506;11.876;2023-06-22T07:05:06;10.52;;;9.52;;
14584;SDS011;7379;51.506;11.876;2023-06-22T07:07:33;9.75;;;8.73;;
14584;SDS011;7379;51.506;11.876;2023-06-22T07:10:00;10.52;;;9.52;;
14584;SDS011;7379;51.506;11.876;2023-06-22T07:12:26;11.48;;;9.82;;
14584;SDS011;7379;51.506;11.876;2023-06-22T07:14:56;10.73;;;9.80;;
14584;SDS011;7379;51.506;11.876;2023-06-22T07:17:28;9.73;;;8.82;;
14584;SDS011;7379;51.506;11.876;2023-06-22T07:19:55;10.13;;;9.23;;
14584;SDS011;7379;51.506;11.876;2023-06-22T07:22:22;10.30;;;9.38;;
14584;SDS011;7379;51.506;11.876;2023-06-22T07:24:48;10.23;;;9.30;;
14584;SDS011;7379;51.506;11.876;2023-06-22T07:27:15;11.35;;;10.20;;
14584;SDS011;7379;51.506;11.876;2023-06-22T07:29:44;10.73;;;9.63;;
14584;SDS011;7379;51.506;11.876;2023-06-22T07:32:12;12.05;;;9.52;;
14584;SDS011;7379;51.506;11.876;2023-06-22T07:34:38;11.30;;;10.20;;
14584;SDS011;7379;51.506;11.876;2023-06-22T07:37:06;11.27;;;10.10;;
14584;SDS011;7379;51.506;11.876;2023-06-22T07:39:33;11.15;;;10.05;;
14584;SDS011;7379;51.506;11.876;2023-06-22T07:41:59;10.13;;;9.25;;
14584;SDS011;7379;51.506;11.876;2023-06-22T07:44:26;10.43;;;9.50;;
14584;SDS011;7379;51.506;11.876;2023-06-22T07:46:53;11.35;;;10.18;;
14584;SDS011;7379;51.506;11.876;2023-06-22T07:49:21;10.75;;;9.73;;
14584;SDS011;7379;51.506;11.876;2023-06-22T07:51:47;11.13;;;10.02;;
14584;SDS011;7379;51.506;11.876;2023-06-22T07:54:14;11.88;;;10.32;;
14584;SDS011;7379;51.506;11.876;2023-06-22T07:56:42;11.60;;;9.73;;
14584;SDS011;7379;51.506;11.876;2023-06-22T07:59:09;10.80;;;9.80;;
14584;SDS011;7379;51.506;11.876;2023-06-22T08:01:35;10.93;;;9.88;;
14584;SDS011;7379;51.506;11.876;2023-06-22T08:04:02;10.70;;;9.70;;
14584;SDS011;7379;51.506;11.876;2023-06-22T08:06:32;12.48;;;9.77;;
14584;SDS011;7379;51.506;11.876;2023-06-22T08:08:58;10.98;;;9.98;;
14584;SDS011;7379;51.506;11.876;2023-06-22T08:11:25;10.60;;;9.70;;
14584;SDS011;7379;51.506;11.876;2023-06-22T08:13:52;10.55;;;9.65;;
14584;SDS011;7379;51.506;11.876;2023-06-22T08:16:20;10.65;;;9.65;;
14584;SDS011;7379;51.506;11.876;2023-06-22T08:18:47;10.70;;;9.70;;
14584;SDS011;7379;51.506;11.876;2023-06-22T08:21:14;10.77;;;9.75;;
14584;SDS011;7379;51.506;11.876;2023-06-22T08:23:42;10.60;;;9.63;;
14584;SDS011;7379;51.506;11.876;2023-06-22T08:26:09;10.20;;;9.20;;
14584;SDS011;7379;51.506;11.876;2023-06-22T08:28:35;11.00;;;10.00;;
14584;SDS011;7379;51.506;11.876;2023-06-22T08:31:02;10.20;;;9.20;;
14584;SDS011;7379;51.506;11.876;2023-06-22T08:33:29;10.18;;;9.27;;
14584;SDS011;7379;51.506;11.876;2023-06-22T08:35:56;10.05;;;9.15;;
14584;SDS011;7379;51.506;11.876;2023-06-22T08:38:24;11.32;;;9.82;;
14584;SDS011;7379;51.506;11.876;2023-06-22T08:40:52;10.70;;;9.75;;
14584;SDS011;7379;51.506;11.876;2023-06-22T08:43:18;10.30;;;9.30;;
14584;SDS011;7379;51.506;11.876;2023-06-22T08:45:45;10.23;;;9.30;;
14584;SDS011;7379;51.506;11.876;2023-06-22T08:48:12;10.45;;;9.50;;
14584;SDS011;7379;51.506;11.876;2023-06-22T08:50:39;10.30;;;9.40;;
14584;SDS011;7379;51.506;11.876;2023-06-22T08:53:06;11.63;;;10.45;;
14584;SDS011;7379;51.506;11.876;2023-06-22T08:55:33;11.00;;;9.95;;
14584;SDS011;7379;51.506;11.876;2023-06-22T08:58:01;11.15;;;10.15;;
14584;SDS011;7379;51.506;11.876;2023-06-22T09:00:28;10.90;;;9.80;;
14584;SDS011;7379;51.506;11.876;2023-06-22T09:02:57;10.93;;;9.68;;
14584;SDS011;7379;51.506;11.876;2023-06-22T09:05:24;11.00;;;10.00;;
14584;SDS011;7379;51.506;11.876;2023-06-22T09:07:51;10.98;;;9.88;;
14584;SDS011;7379;51.506;11.876;2023-06-22T09:10:19;10.68;;;9.68;;
14584;SDS011;7379;51.506;11.876;2023-06-22T09:12:46;10.52;;;9.52;;
14584;SDS011;7379;51.506;11.876;2023-06-22T09:15:14;11.00;;;9.95;;
14584;SDS011;7379;51.506;11.876;2023-06-22T09:17:41;10.45;;;9.55;;
14584;SDS011;7379;51.506;11.876;2023-06-22T09:20:08;11.45;;;10.35;;
14584;SDS011;7379;51.506;11.876;2023-06-22T09:22:36;11.23;;;10.13;;
14584;SDS011;7379;51.506;11.876;2023-06-22T09:25:03;10.43;;;9.38;;
14584;SDS011;7379;51.506;11.876;2023-06-22T09:27:31;10.98;;;9.38;;
14584;SDS011;7379;51.506;11.876;2023-06-22T09:29:58;10.65;;;9.65;;
14584;SDS011;7379;51.506;11.876;2023-06-22T09:32:26;10.88;;;9.60;;
14584;SDS011;7379;51.506;11.876;2023-06-22T09:34:52;10.75;;;9.73;;
14584;SDS011;7379;51.506;11.876;2023-06-22T09:37:19;13.02;;;10.13;;
14584;SDS011;7379;51.506;11.876;2023-06-22T09:39:46;10.90;;;9.90;;
14584;SDS011;7379;51.506;11.876;2023-06-22T09:42:12;10.85;;;9.77;;
14584;SDS011;7379;51.506;11.876;2023-06-22T09:44:39;10.52;;;9.40;;
14584;SDS011;7379;51.506;11.876;2023-06-22T09:47:06;10.60;;;9.60;;
14584;SDS011;7379;51.506;11.876;2023-06-22T09:49:34;10.70;;;9.35;;
14584;SDS011;7379;51.506;11.876;2023-06-22T09:52:01;10.50;;;9.50;;
14584;SDS011;7379;51.506;11.876;2023-06-22T09:54:28;10.13;;;9.23;;
14584;SDS011;7379;51.506;11.876;2023-06-22T09:56:54;10.00;;;9.10;;
14584;SDS011;7379;51.506;11.876;2023-06-22T09:59:21;10.40;;;9.40;;
14584;SDS011;7379;51.506;11.876;2023-06-22T10:01:48;10.50;;;9.43;;
14584;SDS011;7379;51.506;11.876;2023-06-22T10:04:14;10.63;;;9.63;;
14584;SDS011;7379;51.506;11.876;2023-06-22T10:06:42;11.07;;;9.98;;
14584;SDS011;7379;51.506;11.876;2023-06-22T10:09:09;10.07;;;9.15;;
14584;SDS011;7379;51.506;11.876;2023-06-22T10:11:36;10.70;;;9.70;;
14584;SDS011;7379;51.506;11.876;2023-06-22T10:14:03;10.73;;;9.55;;
14584;SDS011;7379;51.506;11.876;2023-06-22T10:16:30;10.10;;;9.20;;
14584;SDS011;7379;51.506;11.876;2023-06-22T10:18:57;9.98;;;9.07;;
14584;SDS011;7379;51.506;11.876;2023-06-22T10:21:24;10.00;;;9.10;;
14584;SDS011;7379;51.506;11.876;2023-06-22T10:23:53;9.73;;;8.85;;
14584;SDS011;7379;51.506;11.876;2023-06-22T10:26:20;9.88;;;9.07;;
14584;SDS011;7379;51.506;11.876;2023-06-22T10:28:46;9.68;;;8.75;;
14584;SDS011;7379;51.506;11.876;2023-06-22T10:31:13;10.07;;;9.15;;
14584;SDS011;7379;51.506;11.876;2023-06-22T10:33:41;9.38;;;8.48;;
14584;SDS011;7379;51.506;11.876;2023-06-22T10:36:09;9.90;;;8.90;;
14584;SDS011;7379;51.506;11.876;2023-06-22T10:38:35;9.13;;;8.32;;
14584;SDS011;7379;51.506;11.876;2023-06-22T10:41:03;10.70;;;8.88;;
14584;SDS011;7379;51.506;11.876;2023-06-22T10:43:30;11.10;;;9.05;;
14584;SDS011;7379;51.506;11.876;2023-06-22T10:45:57;8.98;;;8.20;;
14584;SDS011;7379;51.506;11.876;2023-06-22T10:48:24;9.15;;;8.25;;
14584;SDS011;7379;51.506;11.876;2023-06-22T10:50:50;9.48;;;8.55;;
14584;SDS011;7379;51.506;11.876;2023-06-22T10:53:18;9.35;;;8.50;;
14584;SDS011;7379;51.506;11.876;2023-06-22T10:55:45;9.27;;;8.38;;
14584;SDS011;7379;51.506;11.876;2023-06-22T10:58:13;8.77;;;7.97;;
14584;SDS011;7379;51.506;11.876;2023-06-22T11:00:39;9.13;;;8.30;;
14584;SDS011;7379;51.506;11.876;2023-06-22T11:03:06;9.35;;;8.45;;
14584;SDS011;7379;51.506;11.876;2023-06-22T11:05:33;9.32;;;8.43;;
14584;SDS011;7379;51.506;11.876;2023-06-22T11:07:59;9.35;;;8.45;;
14584;SDS011;7379;51.506;11.876;2023-06-22T11:10:26;9.75;;;8.50;;
14584;SDS011;7379;51.506;11.876;2023-06-22T11:12:53;8.73;;;7.93;;
14584;SDS011;7379;51.506;11.876;2023-06-22T11:15:22;9.30;;;8.40;;
14584;SDS011;7379;51.506;11.876;2023-06-22T11:17:48;8.52;;;7.63;;
14584;SDS011;7379;51.506;11.876;2023-06-22T11:20:15;9.32;;;8.43;;
14584;SDS011;7379;51.506;11.876;2023-06-22T11:22:42;8.73;;;7.93;;
14584;SDS011;7379;51.506;11.876;2023-06-22T11:25:08;8.32;;;7.47;;
14584;SDS011;7379;51.506;11.876;2023-06-22T11:27:37;8.57;;;7.78;;
14584;SDS011;7379;51.506;11.876;2023-06-22T11:30:04;8.50;;;7.72;;
14584;SDS011;7379;51.506;11.876;2023-06-22T11:32:33;8.63;;;7.82;;
14584;SDS011;7379;51.506;11.876;2023-06-22T11:35:00;8.32;;;7.63;;
14584;SDS011;7379;51.506;11.876;2023-06-22T11:37:27;8.55;;;7.47;;
14584;SDS011;7379;51.506;11.876;2023-06-22T11:39:53;8.57;;;7.78;;
14584;SDS011;7379;51.506;11.876;2023-06-22T11:42:20;7.53;;;6.78;;
14584;SDS011;7379;51.506;11.876;2023-06-22T11:44:48;8.38;;;7.55;;
14584;SDS011;7379;51.506;11.876;2023-06-22T11:47:15;8.18;;;7.35;;
14584;SDS011;7379;51.506;11.876;2023-06-22T11:49:43;8.85;;;7.45;;
14584;SDS011;7379;51.506;11.876;2023-06-22T11:52:09;8.15;;;7.35;;
14584;SDS011;7379;51.506;11.876;2023-06-22T11:54:36;7.97;;;7.28;;
14584;SDS011;7379;51.506;11.876;2023-06-22T11:57:04;8.63;;;7.75;;
14584;SDS011;7379;51.506;11.876;2023-06-22T11:59:30;8.20;;;7.40;;
14584;SDS011;7379;51.506;11.876;2023-06-22T12:01:57;7.70;;;7.00;;
14584;SDS011;7379;51.506;11.876;2023-06-22T12:04:24;8.38;;;7.57;;
14584;SDS011;7379;51.506;11.876;2023-06-22T12:06:52;8.40;;;7.63;;
14584;SDS011;7379;51.506;11.876;2023-06-22T12:09:19;8.57;;;7.78;;
14584;SDS011;7379;51.506;11.876;2023-06-22T12:11:46;8.55;;;7.75;;
14584;SDS011;7379;51.506;11.876;2023-06-22T12:14:12;7.90;;;7.20;;
14584;SDS011;7379;51.506;11.876;2023-06-22T12:16:39;8.63;;;7.72;;
14584;SDS011;7379;51.506;11.876;2023-06-22T12:19:06;7.72;;;7.03;;
14584;SDS011;7379;51.506;11.876;2023-06-22T12:21:32;8.45;;;7.65;;
14584;SDS011;7379;51.506;11.876;2023-06-22T12:24:00;7.85;;;7.22;;
14584;SDS011;7379;51.506;11.876;2023-06-22T12:26:27;7.95;;;7.25;;
14584;SDS011;7379;51.506;11.876;2023-06-22T12:28:54;8.68;;;7.72;;
14584;SDS011;7379;51.506;11.876;2023-06-22T12:31:20;8.32;;;7.63;;
14584;SDS011;7379;51.506;11.876;2023-06-22T12:33:47;9.10;;;8.20;;
14584;SDS011;7379;51.506;11.876;2023-06-22T12:36:14;8.38;;;7.63;;
14584;SDS011;7379;51.506;11.876;2023-06-22T12:38:42;8.68;;;7.97;;
14584;SDS011;7379;51.506;11.876;2023-06-22T12:41:10;8.57;;;7.78;;
14584;SDS011;7379;51.506;11.876;2023-06-22T12:43:36;8.38;;;7.63;;
14584;SDS011;7379;51.506;11.876;2023-06-22T12:46:03;8.20;;;7.50;;
14584;SDS011;7379;51.506;11.876;2023-06-22T12:48:30;8.23;;;7.43;;
14584;SDS011;7379;51.506;11.876;2023-06-22T12:50:56;8.27;;;7.50;;
14584;SDS011;7379;51.506;11.876;2023-06-22T12:53:23;8.73;;;7.88;;
14584;SDS011;7379;51.506;11.876;2023-06-22T12:55:52;8.02;;;7.22;;
14584;SDS011;7379;51.506;11.876;2023-06-22T12:58:20;8.15;;;7.40;;
14584;SDS011;7379;51.506;11.876;2023-06-22T13:00:47;7.75;;;7.05;;
14584;SDS011;7379;51.506;11.876;2023-06-22T13:03:14;8.65;;;7.85;;
14584;SDS011;7379;51.506;11.876;2023-06-22T13:05:41;8.30;;;7.45;;
14584;SDS011;7379;51.506;11.876;2023-06-22T13:08:08;9.02;;;7.50;;
14584;SDS011;7379;51.506;11.876;2023-06-22T13:10:36;8.32;;;7.55;;
14584;SDS011;7379;51.506;11.876;2023-06-22T13:13:02;8.48;;;7.57;;
14584;SDS011;7379;51.506;11.876;2023-06-22T13:15:30;7.88;;;7.18;;
14584;SDS011;7379;51.506;11.876;2023-06-22T13:17:57;8.13;;;7.35;;
14584;SDS011;7379;51.506;11.876;2023-06-22T13:20:24;8.70;;;7.72;;
14584;SDS011;7379;51.506;11.876;2023-06-22T13:22:50;8.35;;;7.60;;
14584;SDS011;7379;51.506;11.876;2023-06-22T13:25:18;7.95;;;7.22;;
14584;SDS011;7379;51.506;11.876;2023-06-22T13:27:48;8.27;;;7.43;;
14584;SDS011;7379;51.506;11.876;2023-06-22T13:30:15;8.35;;;7.50;;
14584;SDS011;7379;51.506;11.876;2023-06-22T13:32:43;8.05;;;7.25;;
14584;SDS011;7379;51.506;11.876;2023-06-22T13:35:09;7.68;;;7.07;;
14584;SDS011;7379;51.506;11.876;2023-06-22T13:37:36;8.80;;;7.90;;
14584;SDS011;7379;51.506;11.876;2023-06-22T13:40:04;8.68;;;7.25;;
14584;SDS011;7379;51.506;11.876;2023-06-22T13:42:32;7.80;;;7.10;;
14584;SDS011;7379;51.506;11.876;2023-06-22T13:44:59;7.78;;;7.07;;
14584;SDS011;7379;51.506;11.876;2023-06-22T13:47:25;8.35;;;7.03;;
14584;SDS011;7379;51.506;11.876;2023-06-22T13:49:54;8.05;;;7.35;;
14584;SDS011;7379;51.506;11.876;2023-06-22T13:52:20;8.20;;;7.40;;
14584;SDS011;7379;51.506;11.876;2023-06-22T13:54:47;9.73;;;7.35;;
14584;SDS011;7379;51.506;11.876;2023-06-22T13:57:14;8.32;;;7.53;;
14584;SDS011;7379;51.506;11.876;2023-06-22T13:59:40;8.65;;;7.43;;
14584;SDS011;7379;51.506;11.876;2023-06-22T14:02:07;8.20;;;7.20;;
14584;SDS011;7379;51.506;11.876;2023-06-22T14:04:34;7.85;;;7.05;;
14584;SDS011;7379;51.506;11.876;2023-06-22T14:07:02;9.00;;;7.07;;
14584;SDS011;7379;51.506;11.876;2023-06-22T14:09:29;9.38;;;7.00;;
14584;SDS011;7379;51.506;11.876;2023-06-22T14:11:56;8.13;;;7.43;;
14584;SDS011;7379;51.506;11.876;2023-06-22T14:14:22;7.93;;;7.13;;
14584;SDS011;7379;51.506;11.876;2023-06-22T14:16:49;8.63;;;7.65;;
14584;SDS011;7379;51.506;11.876;2023-06-22T14:19:16;8.50;;;7.65;;
14584;SDS011;7379;51.506;11.876;2023-06-22T14:21:44;8.02;;;7.22;;
14584;SDS011;7379;51.506;11.876;2023-06-22T14:24:12;9.32;;;7.32;;
14584;SDS011;7379;51.506;11.876;2023-06-22T14:26:39;8.75;;;7.95;;
14584;SDS011;7379;51.506;11.876;2023-06-22T14:29:05;8.75;;;7.38;;
14584;SDS011;7379;51.506;11.876;2023-06-22T14:31:32;8.00;;;7.30;;
14584;SDS011;7379;51.506;11.876;2023-06-22T14:33:59;9.27;;;7.63;;
14584;SDS011;7379;51.506;11.876;2023-06-22T14:36:27;8.25;;;7.45;;
14584;SDS011;7379;51.506;11.876;2023-06-22T14:38:54;8.60;;;7.68;;
14584;SDS011;7379;51.506;11.876;2023-06-22T14:41:22;7.93;;;7.13;;
14584;SDS011;7379;51.506;11.876;2023-06-22T14:43:49;8.80;;;7.90;;